Time;durP1;ratioP1;P1;durP2;ratioP2;P2;SDS_P1;SDS_P2;PMS_P1;PMS_P2;Temp;Humidity;BMP_temperature;BMP_pressure;BME280_temperature;BME280_humidity;BME280_pressure;Samples;Min_cycle;Max_cycle;Signal;HPM_P1;HPM_P2
2023/06/24 00:02:02;;;;;;;;;;;26.20;59.60;;;;;;5075706;28;19989;-58
2023/06/24 00:04:29;;;;;;;;;;;26.20;59.70;;;;;;5073185;28;19921;-59
2023/06/24 00:06:59;;;;;;;;;;;26.20;59.60;;;;;;5055364;28;19974;-58
2023/06/24 00:09:27;;;;;;;;;;;26.20;59.70;;;;;;5055530;28;20304;-58
2023/06/24 00:11:54;;;;;;;;;;;26.20;59.70;;;;;;5055539;28;19920;-58
2023/06/24 00:14:23;;;;;;;;;;;26.20;59.70;;;;;;5055344;28;20255;-58
2023/06/24 00:16:51;;;;;;;;;;;26.20;59.70;;;;;;5055123;28;19921;-58
2023/06/24 00:19:19;;;;;;;;;;;26.20;59.80;;;;;;5055163;28;19921;-58
2023/06/24 00:21:46;;;;;;;;;;;26.20;59.80;;;;;;5053632;28;19975;-58
2023/06/24 00:24:13;;;;;;;;;;;26.20;59.70;;;;;;5055443;28;20011;-58
2023/06/24 00:26:39;;;;;;;;;;;26.20;59.70;;;;;;5055127;28;20019;-58
2023/06/24 00:29:06;;;;;;;;;;;26.20;59.60;;;;;;5055157;28;19921;-58
2023/06/24 00:31:33;;;;;;;;;;;26.20;59.60;;;;;;5055478;28;19987;-59
2023/06/24 00:34:00;;;;;;;;;;;26.20;59.60;;;;;;5055000;28;20007;-58
2023/06/24 00:36:27;;;;;;;;;;;26.20;59.60;;;;;;5054482;28;20480;-59
2023/06/24 00:38:55;;;;;;;;;;;26.20;59.50;;;;;;5054774;28;19921;-58
2023/06/24 00:41:22;;;;;;;;;;;26.20;59.60;;;;;;5059817;28;19966;-58
2023/06/24 00:43:49;;;;;;;;;;;26.20;59.60;;;;;;5074729;28;19924;-58
2023/06/24 00:46:19;;;;;;;;;;;26.20;59.60;;;;;;5073907;28;19927;-58
2023/06/24 00:48:46;;;;;;;;;;;26.20;59.50;;;;;;5073656;28;19924;-58
2023/06/24 00:51:13;;;;;;;;;;;26.20;59.60;;;;;;5074788;28;19921;-58
2023/06/24 00:53:40;;;;;;;;;;;26.20;59.50;;;;;;5074381;28;20491;-58
2023/06/24 00:56:07;;;;;;;;;;;26.20;59.40;;;;;;5074351;28;19973;-58
2023/06/24 00:58:36;;;;;;;;;;;26.20;59.30;;;;;;5074281;28;19971;-58
2023/06/24 01:01:05;;;;;;;;;;;26.20;59.30;;;;;;5074270;28;19927;-58
2023/06/24 01:03:32;;;;;;;;;;;26.20;59.30;;;;;;5074440;28;19920;-58
2023/06/24 01:05:59;;;;;;;;;;;26.20;59.30;;;;;;5074334;28;20292;-58
2023/06/24 01:08:26;;;;;;;;;;;26.20;59.30;;;;;;5057205;28;19967;-58
2023/06/24 01:10:53;;;;;;;;;;;26.20;59.30;;;;;;5054408;28;20367;-58
2023/06/24 01:13:22;;;;;;;;;;;26.20;59.30;;;;;;5054389;28;20352;-58
2023/06/24 01:15:49;;;;;;;;;;;26.20;59.30;;;;;;5053785;28;20428;-58
2023/06/24 01:18:32;;;;;;;;;;;26.20;59.30;;;;;;5053950;28;19925;-58
2023/06/24 01:21:05;;;;;;;;;;;26.20;59.30;;;;;;5060385;28;19927;-58
2023/06/24 01:23:42;;;;;;;;;;;26.20;59.30;;;;;;5074165;28;20014;-58
2023/06/24 01:26:29;;;;;;;;;;;26.10;59.30;;;;;;5074115;28;19920;-58
2023/06/24 01:29:09;;;;;;;;;;;26.10;59.20;;;;;;5058371;28;19967;-58
2023/06/24 01:31:48;;;;;;;;;;;26.20;59.30;;;;;;5052944;28;20372;-58
2023/06/24 01:34:23;;;;;;;;;;;26.10;59.20;;;;;;5052463;28;20439;-58
2023/06/24 01:36:55;;;;;;;;;;;26.10;59.30;;;;;;5053644;28;19970;-58
2023/06/24 01:39:24;;;;;;;;;;;26.10;59.20;;;;;;5086032;28;20293;-59
2023/06/24 01:41:55;;;;;;;;;;;26.10;59.20;;;;;;5066434;28;19962;-59
2023/06/24 01:44:22;;;;;;;;;;;26.10;59.30;;;;;;5073550;28;20019;-59
2023/06/24 01:46:51;;;;;;;;;;;26.10;59.30;;;;;;5073796;28;19924;-59
2023/06/24 01:49:19;;;;;;;;;;;26.10;59.30;;;;;;5073569;28;19920;-59
2023/06/24 01:51:47;;;;;;;;;;;26.10;59.30;;;;;;5055445;28;19925;-58
2023/06/24 01:54:18;;;;;;;;;;;26.10;59.30;;;;;;5053654;28;20288;-59
2023/06/24 01:56:47;;;;;;;;;;;26.10;59.20;;;;;;5053658;28;19925;-59
2023/06/24 01:59:16;;;;;;;;;;;26.10;59.30;;;;;;5053696;28;19921;-59
2023/06/24 02:01:43;;;;;;;;;;;26.10;59.30;;;;;;5053438;28;19923;-59
2023/06/24 02:04:11;;;;;;;;;;;26.10;59.30;;;;;;5053419;28;19967;-59
2023/06/24 02:06:40;;;;;;;;;;;26.10;59.30;;;;;;5053394;28;19927;-58
2023/06/24 02:09:07;;;;;;;;;;;26.10;59.40;;;;;;5053595;28;19921;-59
2023/06/24 02:11:35;;;;;;;;;;;26.10;59.30;;;;;;5067455;28;19920;-59
2023/06/24 02:14:04;;;;;;;;;;;26.10;59.30;;;;;;5073603;28;19920;-59
2023/06/24 02:16:32;;;;;;;;;;;26.10;59.30;;;;;;5073350;28;19920;-59
2023/06/24 02:19:01;;;;;;;;;;;26.10;59.30;;;;;;5073636;28;20327;-59
2023/06/24 02:21:29;;;;;;;;;;;26.10;59.30;;;;;;5098279;28;20014;-58
2023/06/24 02:23:56;;;;;;;;;;;26.10;59.30;;;;;;5053539;28;20288;-58
2023/06/24 02:26:25;;;;;;;;;;;26.10;59.30;;;;;;5053333;28;20334;-59
2023/06/24 02:28:53;;;;;;;;;;;26.10;59.30;;;;;;5053019;28;19921;-59
2023/06/24 02:31:20;;;;;;;;;;;26.10;59.30;;;;;;5052889;28;19960;-59
2023/06/24 02:33:47;;;;;;;;;;;26.10;59.30;;;;;;5053347;28;19921;-59
2023/06/24 02:36:14;;;;;;;;;;;26.10;59.30;;;;;;5052575;28;20420;-59
2023/06/24 02:38:41;;;;;;;;;;;26.10;59.40;;;;;;5053382;28;19933;-59
2023/06/24 02:41:08;;;;;;;;;;;26.10;59.40;;;;;;5053545;28;19921;-59
2023/06/24 02:43:36;;;;;;;;;;;26.10;59.40;;;;;;5053166;28;19921;-59
2023/06/24 02:46:05;;;;;;;;;;;26.10;59.40;;;;;;5056757;28;19921;-59
2023/06/24 02:48:33;;;;;;;;;;;26.10;59.30;;;;;;5056874;28;19921;-59
2023/06/24 02:51:00;;;;;;;;;;;26.10;59.40;;;;;;5056657;28;19975;-59
2023/06/24 02:53:28;;;;;;;;;;;26.10;59.30;;;;;;5056790;28;19921;-59
2023/06/24 02:55:55;;;;;;;;;;;26.10;59.30;;;;;;5056474;28;19956;-58
2023/06/24 02:58:23;;;;;;;;;;;26.10;59.20;;;;;;5056296;28;19921;-59
2023/06/24 03:00:50;;;;;;;;;;;26.10;59.20;;;;;;5056650;28;20296;-59
2023/06/24 03:03:18;;;;;;;;;;;26.10;59.30;;;;;;5056440;28;19920;-59
2023/06/24 03:05:48;;;;;;;;;;;26.10;59.30;;;;;;5056657;28;19921;-59
2023/06/24 03:08:15;;;;;;;;;;;26.10;59.30;;;;;;5056492;28;19920;-59
2023/06/24 03:10:42;;;;;;;;;;;26.10;59.20;;;;;;5055943;28;20015;-59
2023/06/24 03:13:11;;;;;;;;;;;26.10;59.20;;;;;;5056434;28;20015;-59
2023/06/24 03:15:38;;;;;;;;;;;26.10;59.20;;;;;;5056015;28;19921;-59
2023/06/24 03:18:05;;;;;;;;;;;26.10;59.20;;;;;;5056380;28;20292;-58
2023/06/24 03:20:38;;;;;;;;;;;26.10;59.10;;;;;;5056252;28;20011;-59
2023/06/24 03:23:06;;;;;;;;;;;26.10;59.10;;;;;;5056063;28;19921;-58
2023/06/24 03:25:33;;;;;;;;;;;26.10;59.10;;;;;;5055841;28;19975;-59
2023/06/24 03:28:03;;;;;;;;;;;26.10;59.10;;;;;;5056388;28;19943;-59
2023/06/24 03:30:31;;;;;;;;;;;26.10;59.10;;;;;;5056155;28;19921;-59
2023/06/24 03:32:58;;;;;;;;;;;26.10;59.00;;;;;;5056182;28;19975;-59
2023/06/24 03:35:25;;;;;;;;;;;26.20;59.10;;;;;;5055737;28;19971;-59
2023/06/24 03:37:52;;;;;;;;;;;26.20;59.10;;;;;;5055747;28;19920;-59
2023/06/24 03:40:18;;;;;;;;;;;26.20;59.10;;;;;;5055333;28;19974;-59
2023/06/24 03:42:45;;;;;;;;;;;26.20;59.00;;;;;;5056074;28;19945;-59
2023/06/24 03:45:12;;;;;;;;;;;26.20;59.00;;;;;;5055592;28;20020;-58
2023/06/24 03:47:41;;;;;;;;;;;26.20;59.00;;;;;;5055714;28;19920;-58
2023/06/24 03:50:09;;;;;;;;;;;26.20;59.00;;;;;;5055692;28;19920;-59
2023/06/24 03:52:36;;;;;;;;;;;26.20;59.00;;;;;;5056008;28;19921;-59
2023/06/24 03:55:04;;;;;;;;;;;26.20;59.00;;;;;;5055457;28;19964;-59
2023/06/24 03:57:31;;;;;;;;;;;26.20;59.00;;;;;;5055513;28;19967;-59
2023/06/24 03:59:58;;;;;;;;;;;26.20;59.00;;;;;;5055880;28;19921;-59
2023/06/24 04:02:26;;;;;;;;;;;26.20;58.90;;;;;;5055735;28;20007;-59
2023/06/24 04:04:56;;;;;;;;;;;26.30;59.00;;;;;;5055069;28;19943;-59
2023/06/24 04:07:27;;;;;;;;;;;26.30;59.00;;;;;;5055247;28;19943;-59
2023/06/24 04:09:55;;;;;;;;;;;26.30;58.90;;;;;;5055242;28;19921;-59
2023/06/24 04:12:23;;;;;;;;;;;26.30;59.00;;;;;;5054104;28;19975;-59
2023/06/24 04:14:50;;;;;;;;;;;26.30;58.90;;;;;;5055215;28;19920;-59
2023/06/24 04:17:17;;;;;;;;;;;26.30;58.90;;;;;;5055015;28;19920;-59
2023/06/24 04:19:44;;;;;;;;;;;26.40;59.00;;;;;;5055111;28;19974;-59
2023/06/24 04:22:11;;;;;;;;;;;26.40;58.80;;;;;;5055149;28;19927;-59
2023/06/24 04:24:38;;;;;;;;;;;26.40;58.80;;;;;;5087333;28;19999;-59
2023/06/24 04:27:06;;;;;;;;;;;26.40;58.80;;;;;;5055194;28;20003;-59
2023/06/24 04:29:34;;;;;;;;;;;26.40;58.80;;;;;;5055225;28;19920;-59
2023/06/24 04:32:01;;;;;;;;;;;26.50;58.80;;;;;;5054532;28;19921;-60
2023/06/24 04:34:28;;;;;;;;;;;26.50;58.80;;;;;;5055197;28;20336;-59
2023/06/24 04:36:55;;;;;;;;;;;26.50;58.60;;;;;;5054374;28;19924;-58
2023/06/24 04:39:22;;;;;;;;;;;26.50;58.30;;;;;;5055026;28;19921;-59
2023/06/24 04:41:49;;;;;;;;;;;26.50;58.00;;;;;;5053960;28;20397;-59
2023/06/24 04:44:16;;;;;;;;;;;26.50;57.70;;;;;;5054988;28;20022;-59
2023/06/24 04:46:43;;;;;;;;;;;26.60;57.30;;;;;;5054517;28;19924;-59
2023/06/24 04:49:10;;;;;;;;;;;26.60;57.00;;;;;;5054580;28;19951;-59
2023/06/24 04:51:37;;;;;;;;;;;26.70;56.80;;;;;;5054555;28;20038;-59
2023/06/24 04:54:04;;;;;;;;;;;26.70;56.50;;;;;;5054897;28;20285;-59
2023/06/24 04:56:31;;;;;;;;;;;26.80;56.20;;;;;;5054091;28;19966;-59
2023/06/24 04:58:58;;;;;;;;;;;26.80;55.80;;;;;;5054658;28;19920;-58
2023/06/24 05:01:25;;;;;;;;;;;26.80;55.60;;;;;;5086773;28;19928;-59
2023/06/24 05:03:52;;;;;;;;;;;26.80;55.20;;;;;;5054208;28;20003;-59
2023/06/24 05:06:19;;;;;;;;;;;26.90;55.00;;;;;;5053625;28;20007;-59
2023/06/24 05:08:46;;;;;;;;;;;26.90;54.70;;;;;;5054394;28;19928;-59
2023/06/24 05:11:13;;;;;;;;;;;26.90;54.50;;;;;;5054119;28;19920;-59
2023/06/24 05:13:40;;;;;;;;;;;26.90;54.20;;;;;;5054201;28;19927;-58
2023/06/24 05:16:07;;;;;;;;;;;26.90;54.10;;;;;;5052745;28;19932;-59
2023/06/24 05:18:34;;;;;;;;;;;26.90;53.80;;;;;;5070892;28;19921;-58
2023/06/24 05:21:01;;;;;;;;;;;26.90;53.50;;;;;;5073986;28;20360;-59
2023/06/24 05:23:28;;;;;;;;;;;26.90;53.40;;;;;;5073981;28;19920;-58
2023/06/24 05:25:55;;;;;;;;;;;26.90;53.20;;;;;;5073646;28;19920;-59
2023/06/24 05:28:22;;;;;;;;;;;26.90;53.00;;;;;;5074437;28;19962;-59
2023/06/24 05:30:49;;;;;;;;;;;27.00;52.80;;;;;;5073268;28;20377;-58
2023/06/24 05:33:16;;;;;;;;;;;27.00;52.70;;;;;;5074096;28;19921;-58
2023/06/24 05:35:43;;;;;;;;;;;27.00;52.60;;;;;;5073791;28;20019;-58
2023/06/24 05:38:10;;;;;;;;;;;27.00;52.40;;;;;;5073800;28;20031;-59
2023/06/24 05:40:37;;;;;;;;;;;27.00;52.30;;;;;;5073467;28;19921;-59
2023/06/24 05:43:04;;;;;;;;;;;27.00;52.20;;;;;;5073700;28;20356;-58
2023/06/24 05:45:30;;;;;;;;;;;27.00;52.10;;;;;;5073900;28;19921;-58
2023/06/24 05:47:58;;;;;;;;;;;27.00;51.80;;;;;;5073771;28;20360;-58
2023/06/24 05:50:25;;;;;;;;;;;27.00;51.80;;;;;;5073602;28;19927;-59
2023/06/24 05:52:52;;;;;;;;;;;27.00;51.80;;;;;;5073578;28;20514;-60
2023/06/24 05:55:19;;;;;;;;;;;27.00;51.70;;;;;;5073422;28;19920;-58
2023/06/24 05:57:46;;;;;;;;;;;27.00;51.60;;;;;;5105729;28;20018;-58
2023/06/24 06:00:13;;;;;;;;;;;27.10;51.50;;;;;;5073284;28;19920;-59
2023/06/24 06:02:40;;;;;;;;;;;27.10;51.50;;;;;;5073365;28;19943;-59
2023/06/24 06:05:07;;;;;;;;;;;27.00;51.30;;;;;;5073426;28;19943;-58
2023/06/24 06:07:34;;;;;;;;;;;27.10;51.30;;;;;;5073435;28;19991;-59
2023/06/24 06:10:01;;;;;;;;;;;27.10;51.10;;;;;;5073981;28;19920;-58
2023/06/24 06:12:28;;;;;;;;;;;27.10;51.10;;;;;;5072596;28;20356;-60
2023/06/24 06:14:55;;;;;;;;;;;27.10;51.00;;;;;;5073660;28;20003;-59
2023/06/24 06:17:23;;;;;;;;;;;27.10;51.00;;;;;;5066706;28;19999;-59
2023/06/24 06:19:50;;;;;;;;;;;27.10;50.90;;;;;;5057503;28;20007;-59
2023/06/24 06:22:18;;;;;;;;;;;27.10;50.70;;;;;;5057007;28;20362;-59
2023/06/24 06:24:45;;;;;;;;;;;27.10;50.60;;;;;;5057182;28;19920;-58
2023/06/24 06:27:13;;;;;;;;;;;27.10;50.50;;;;;;5057014;28;20296;-59
2023/06/24 06:29:40;;;;;;;;;;;27.10;50.30;;;;;;5055990;28;19921;-58
2023/06/24 06:32:07;;;;;;;;;;;27.10;50.20;;;;;;5057609;28;19947;-59
2023/06/24 06:34:34;;;;;;;;;;;27.10;50.20;;;;;;5057381;28;19944;-59
2023/06/24 06:37:01;;;;;;;;;;;27.20;50.20;;;;;;5056620;28;19963;-58
2023/06/24 06:39:28;;;;;;;;;;;27.20;49.90;;;;;;5057001;28;20308;-59
2023/06/24 06:41:55;;;;;;;;;;;27.20;49.70;;;;;;5060987;28;20015;-59
2023/06/24 06:44:22;;;;;;;;;;;27.20;49.60;;;;;;5076843;28;19934;-58
2023/06/24 06:46:49;;;;;;;;;;;27.30;49.50;;;;;;5076835;28;19932;-58
2023/06/24 06:49:16;;;;;;;;;;;27.30;49.30;;;;;;5076875;28;20019;-58
2023/06/24 06:51:43;;;;;;;;;;;27.30;49.10;;;;;;5070297;28;20055;-58
2023/06/24 06:54:10;;;;;;;;;;;27.30;49.10;;;;;;5055603;28;20328;-59
2023/06/24 06:56:37;;;;;;;;;;;27.30;49.00;;;;;;5056467;28;20325;-58
2023/06/24 06:59:04;;;;;;;;;;;27.40;49.00;;;;;;5056463;28;19921;-59
2023/06/24 07:01:30;;;;;;;;;;;27.40;49.00;;;;;;5056917;28;20261;-59
2023/06/24 07:03:57;;;;;;;;;;;27.40;48.80;;;;;;5056721;28;19931;-58
2023/06/24 07:06:25;;;;;;;;;;;27.40;48.80;;;;;;5056244;28;19920;-58
2023/06/24 07:08:52;;;;;;;;;;;27.40;48.60;;;;;;5056539;28;19927;-58
2023/06/24 07:11:19;;;;;;;;;;;27.50;48.70;;;;;;5056744;28;19979;-60
2023/06/24 07:13:46;;;;;;;;;;;27.40;48.50;;;;;;5056637;28;19963;-58
2023/06/24 07:16:13;;;;;;;;;;;27.40;48.40;;;;;;5055913;28;19975;-58
2023/06/24 07:18:39;;;;;;;;;;;27.50;48.50;;;;;;5055654;28;19962;-58
2023/06/24 07:21:06;;;;;;;;;;;27.50;48.40;;;;;;5052164;28;19966;-58
2023/06/24 07:23:33;;;;;;;;;;;27.50;48.30;;;;;;5071218;28;20015;-58
2023/06/24 07:26:00;;;;;;;;;;;27.60;48.30;;;;;;5070484;28;20011;-58
2023/06/24 07:28:30;;;;;;;;;;;27.60;48.10;;;;;;5056142;28;19920;-58
2023/06/24 07:30:56;;;;;;;;;;;27.60;47.90;;;;;;5055680;28;19963;-59
2023/06/24 07:33:24;;;;;;;;;;;27.60;47.80;;;;;;5056386;28;19921;-58
2023/06/24 07:35:51;;;;;;;;;;;27.70;47.80;;;;;;5055962;28;19921;-59
2023/06/24 07:38:18;;;;;;;;;;;27.70;47.80;;;;;;5055541;28;20007;-58
2023/06/24 07:40:44;;;;;;;;;;;27.70;47.70;;;;;;5056265;28;20339;-59
2023/06/24 07:43:11;;;;;;;;;;;27.70;47.70;;;;;;5055850;28;20377;-58
2023/06/24 07:45:38;;;;;;;;;;;27.70;47.60;;;;;;5055884;28;20369;-58
2023/06/24 07:48:06;;;;;;;;;;;27.70;47.60;;;;;;5055949;28;19920;-58
2023/06/24 07:50:37;;;;;;;;;;;27.70;47.60;;;;;;5056091;28;19925;-58
2023/06/24 07:53:05;;;;;;;;;;;27.70;47.60;;;;;;5055684;28;20412;-58
2023/06/24 07:55:31;;;;;;;;;;;27.70;47.50;;;;;;5055282;28;20422;-58
2023/06/24 07:57:59;;;;;;;;;;;27.70;47.40;;;;;;5055248;28;19928;-59
2023/06/24 08:00:26;;;;;;;;;;;27.70;47.40;;;;;;5055736;28;20282;-59
2023/06/24 08:02:55;;;;;;;;;;;27.70;47.40;;;;;;5055421;28;19972;-58
2023/06/24 08:05:22;;;;;;;;;;;27.70;47.30;;;;;;5055546;28;19921;-59
2023/06/24 08:07:50;;;;;;;;;;;27.70;47.20;;;;;;5055569;28;20019;-58
2023/06/24 08:10:17;;;;;;;;;;;27.70;47.10;;;;;;5055455;28;19928;-58
2023/06/24 08:12:44;;;;;;;;;;;27.70;46.90;;;;;;5055292;28;19974;-58
2023/06/24 08:15:14;;;;;;;;;;;27.70;46.90;;;;;;5055322;28;20364;-58
2023/06/24 08:17:41;;;;;;;;;;;27.80;46.80;;;;;;5054724;28;19966;-59
2023/06/24 08:20:09;;;;;;;;;;;27.80;46.70;;;;;;5055019;28;19932;-58
2023/06/24 08:22:35;;;;;;;;;;;27.80;46.60;;;;;;5055324;28;20011;-58
2023/06/24 08:25:03;;;;;;;;;;;27.70;46.30;;;;;;5054833;28;19920;-58
2023/06/24 08:27:29;;;;;;;;;;;27.80;46.40;;;;;;5054822;28;19943;-58
2023/06/24 08:29:56;;;;;;;;;;;27.70;46.20;;;;;;5055001;28;20228;-58
2023/06/24 08:32:23;;;;;;;;;;;27.80;46.20;;;;;;5054702;28;20015;-59
2023/06/24 08:34:50;;;;;;;;;;;27.80;46.20;;;;;;5054840;28;19921;-59
2023/06/24 08:37:17;;;;;;;;;;;27.80;46.30;;;;;;5054468;28;19921;-59
2023/06/24 08:39:44;;;;;;;;;;;27.80;46.30;;;;;;5054669;28;19944;-58
2023/06/24 08:42:11;;;;;;;;;;;27.80;46.30;;;;;;5053585;28;20015;-58
2023/06/24 08:44:38;;;;;;;;;;;27.80;46.20;;;;;;5055005;28;19968;-58
2023/06/24 08:47:05;;;;;;;;;;;27.80;46.20;;;;;;5054399;28;19927;-58
2023/06/24 08:49:34;;;;;;;;;;;27.90;46.20;;;;;;5054896;28;19920;-58
2023/06/24 08:52:03;;;;;;;;;;;27.90;46.20;;;;;;5054404;28;19925;-58
2023/06/24 08:54:32;;;;;;;;;;;27.90;46.10;;;;;;5053635;28;19920;-58
2023/06/24 08:57:01;;;;;;;;;;;27.90;46.30;;;;;;5054475;28;20101;-59
2023/06/24 08:59:28;;;;;;;;;;;27.90;46.10;;;;;;5054506;28;20348;-59
2023/06/24 09:01:55;;;;;;;;;;;27.90;46.20;;;;;;5054655;28;20324;-60
2023/06/24 09:04:22;;;;;;;;;;;27.90;46.10;;;;;;5054243;28;20375;-59
2023/06/24 09:06:49;;;;;;;;;;;27.90;46.00;;;;;;5053997;28;20003;-58
2023/06/24 09:09:19;;;;;;;;;;;28.00;46.10;;;;;;5054181;28;20019;-59
2023/06/24 09:11:57;;;;;;;;;;;28.00;46.00;;;;;;5054236;28;19974;-58
2023/06/24 09:14:25;;;;;;;;;;;28.00;46.00;;;;;;5054124;28;20369;-59
2023/06/24 09:16:56;;;;;;;;;;;27.90;46.00;;;;;;5054200;28;19920;-59
2023/06/24 09:19:23;;;;;;;;;;;27.90;46.00;;;;;;5054079;28;20361;-59
2023/06/24 09:21:52;;;;;;;;;;;27.90;46.00;;;;;;5054096;28;19921;-58
2023/06/24 09:24:19;;;;;;;;;;;28.00;46.10;;;;;;5054163;28;19931;-58
2023/06/24 09:26:46;;;;;;;;;;;28.00;46.00;;;;;;5063366;28;19964;-58
2023/06/24 09:29:17;;;;;;;;;;;28.00;46.00;;;;;;5060051;28;20206;-58
2023/06/24 09:31:48;;;;;;;;;;;28.00;46.00;;;;;;5054123;28;19921;-58
2023/06/24 09:34:15;;;;;;;;;;;28.00;46.00;;;;;;5052916;28;19921;-58
2023/06/24 09:36:43;;;;;;;;;;;28.00;46.10;;;;;;5053905;28;19928;-58
2023/06/24 09:39:11;;;;;;;;;;;27.90;46.00;;;;;;5053712;28;19995;-59
2023/06/24 09:41:56;;;;;;;;;;;28.00;46.00;;;;;;5053694;28;19928;-58
2023/06/24 09:44:23;;;;;;;;;;;28.00;45.90;;;;;;5053578;28;20435;-58
2023/06/24 09:46:50;;;;;;;;;;;28.00;45.80;;;;;;5053489;28;19924;-58
2023/06/24 09:49:17;;;;;;;;;;;28.00;45.80;;;;;;5085969;28;19921;-59
2023/06/24 09:51:46;;;;;;;;;;;28.10;45.90;;;;;;5053852;28;19964;-59
2023/06/24 09:54:14;;;;;;;;;;;28.10;45.80;;;;;;5053536;28;19920;-58
2023/06/24 09:56:48;;;;;;;;;;;28.10;45.70;;;;;;5053037;28;20373;-58
2023/06/24 09:59:15;;;;;;;;;;;28.00;45.70;;;;;;5053164;28;20421;-58
2023/06/24 10:01:43;;;;;;;;;;;28.00;45.70;;;;;;5053323;28;19921;-58
2023/06/24 10:04:15;;;;;;;;;;;28.00;45.80;;;;;;5053412;28;19964;-59
2023/06/24 10:06:42;;;;;;;;;;;28.00;45.90;;;;;;5053117;28;19920;-59
2023/06/24 10:09:09;;;;;;;;;;;28.00;45.90;;;;;;5053485;28;19920;-59
2023/06/24 10:11:36;;;;;;;;;;;28.00;45.80;;;;;;5053019;28;19964;-58
2023/06/24 10:14:02;;;;;;;;;;;28.00;45.90;;;;;;5053651;28;19971;-58
2023/06/24 10:16:29;;;;;;;;;;;28.00;45.80;;;;;;5053240;28;20399;-58
2023/06/24 10:19:01;;;;;;;;;;;28.10;45.70;;;;;;5052997;28;20365;-58
2023/06/24 10:21:48;;;;;;;;;;;28.10;45.60;;;;;;5053171;28;19920;-58
2023/06/24 10:24:30;;;;;;;;;;;28.00;45.60;;;;;;5053214;28;20012;-58
2023/06/24 10:27:08;;;;;;;;;;;28.00;45.60;;;;;;5052940;28;19986;-58
2023/06/24 10:29:37;;;;;;;;;;;28.00;45.70;;;;;;5053534;28;19967;-58
2023/06/24 10:32:05;;;;;;;;;;;28.00;45.80;;;;;;5053463;28;19921;-58
2023/06/24 10:34:33;;;;;;;;;;;28.00;45.80;;;;;;5053479;28;19920;-59
2023/06/24 10:37:20;;;;;;;;;;;28.00;45.90;;;;;;5053087;28;19925;-59
2023/06/24 10:39:50;;;;;;;;;;;28.00;45.90;;;;;;5053412;28;19974;-59
2023/06/24 10:42:30;;;;;;;;;;;27.90;45.80;;;;;;5052493;28;20388;-59
2023/06/24 10:44:58;;;;;;;;;;;28.00;45.70;;;;;;5053021;28;20435;-59
2023/06/24 10:47:26;;;;;;;;;;;28.00;45.60;;;;;;5052883;28;20015;-58
2023/06/24 10:49:54;;;;;;;;;;;28.10;45.50;;;;;;5053038;28;19920;-59
2023/06/24 10:52:21;;;;;;;;;;;28.20;45.50;;;;;;5053031;28;19920;-59
2023/06/24 10:54:48;;;;;;;;;;;28.20;45.40;;;;;;5052999;28;20015;-59
2023/06/24 10:57:21;;;;;;;;;;;28.30;45.40;;;;;;5052470;28;19921;-59
2023/06/24 10:59:51;;;;;;;;;;;28.30;45.20;;;;;;5052020;28;19920;-58
2023/06/24 11:02:20;;;;;;;;;;;28.40;45.20;;;;;;5052203;28;19924;-59
2023/06/24 11:04:49;;;;;;;;;;;28.30;45.10;;;;;;5053525;28;19921;-59
2023/06/24 11:07:17;;;;;;;;;;;28.40;45.20;;;;;;5056729;28;20011;-58
2023/06/24 11:09:52;;;;;;;;;;;28.40;45.30;;;;;;5090527;28;19921;-58
2023/06/24 11:12:23;;;;;;;;;;;28.30;45.10;;;;;;5076929;28;19920;-58
2023/06/24 11:14:50;;;;;;;;;;;28.30;45.30;;;;;;5076375;28;20027;-59
2023/06/24 11:17:19;;;;;;;;;;;28.30;45.30;;;;;;5076307;28;20014;-59
2023/06/24 11:19:46;;;;;;;;;;;28.30;45.30;;;;;;5076007;28;20387;-59
2023/06/24 11:22:13;;;;;;;;;;;28.30;45.30;;;;;;5075697;28;20041;-59
2023/06/24 11:24:41;;;;;;;;;;;28.20;45.30;;;;;;5076479;28;19946;-59
2023/06/24 11:27:08;;;;;;;;;;;28.30;45.40;;;;;;5075939;28;19959;-58
2023/06/24 11:29:35;;;;;;;;;;;28.30;45.40;;;;;;5076450;28;20436;-58
2023/06/24 11:32:02;;;;;;;;;;;28.20;45.30;;;;;;5075023;28;19976;-58
2023/06/24 11:34:30;;;;;;;;;;;28.30;45.30;;;;;;5076027;28;20339;-59
2023/06/24 11:36:56;;;;;;;;;;;28.30;45.30;;;;;;5075928;28;19927;-58
2023/06/24 11:39:24;;;;;;;;;;;28.20;45.30;;;;;;5075833;28;20007;-59
2023/06/24 11:41:51;;;;;;;;;;;28.30;45.30;;;;;;5075235;28;19967;-59
2023/06/24 11:44:19;;;;;;;;;;;28.30;45.30;;;;;;5076238;28;20015;-58
2023/06/24 11:46:47;;;;;;;;;;;28.20;45.30;;;;;;5075533;28;20347;-58
2023/06/24 11:49:14;;;;;;;;;;;28.20;45.30;;;;;;5075545;28;19927;-59
2023/06/24 11:51:49;;;;;;;;;;;28.30;45.40;;;;;;5075202;28;19973;-59
2023/06/24 11:54:17;;;;;;;;;;;28.20;45.40;;;;;;5058214;28;19975;-59
2023/06/24 11:56:49;;;;;;;;;;;28.20;45.50;;;;;;5055922;28;19920;-58
2023/06/24 11:59:20;;;;;;;;;;;28.10;45.60;;;;;;5055432;28;20015;-58
2023/06/24 12:01:54;;;;;;;;;;;28.10;45.70;;;;;;5054727;28;19921;-58
2023/06/24 12:04:21;;;;;;;;;;;28.10;45.70;;;;;;5055716;28;20019;-59
2023/06/24 12:06:48;;;;;;;;;;;28.10;45.90;;;;;;5055498;28;19921;-59
2023/06/24 12:09:16;;;;;;;;;;;28.00;45.80;;;;;;5055526;28;19924;-59
2023/06/24 12:11:42;;;;;;;;;;;28.00;45.90;;;;;;5055750;28;20317;-59
2023/06/24 12:14:09;;;;;;;;;;;28.00;45.90;;;;;;5055410;28;19921;-58
2023/06/24 12:16:38;;;;;;;;;;;28.00;46.00;;;;;;5055315;28;19921;-59
2023/06/24 12:19:08;;;;;;;;;;;28.00;46.10;;;;;;5054992;28;19966;-58
2023/06/24 12:21:35;;;;;;;;;;;28.00;46.10;;;;;;5054882;28;20000;-59
2023/06/24 12:24:03;;;;;;;;;;;28.00;46.10;;;;;;5055100;28;19964;-59
2023/06/24 12:26:30;;;;;;;;;;;28.00;46.00;;;;;;5054825;28;20011;-58
2023/06/24 12:28:57;;;;;;;;;;;28.00;45.90;;;;;;5054823;28;20284;-59
2023/06/24 12:31:24;;;;;;;;;;;28.10;45.90;;;;;;5054711;28;19921;-58
2023/06/24 12:33:52;;;;;;;;;;;28.10;45.80;;;;;;5055150;28;19959;-58
2023/06/24 12:36:19;;;;;;;;;;;28.10;45.70;;;;;;5054833;28;19927;-58
2023/06/24 12:38:46;;;;;;;;;;;28.10;45.60;;;;;;5054499;28;19996;-59
2023/06/24 12:41:13;;;;;;;;;;;28.10;45.70;;;;;;5055062;28;20379;-58
2023/06/24 12:43:40;;;;;;;;;;;28.10;45.70;;;;;;5054883;28;20019;-59
2023/06/24 12:46:07;;;;;;;;;;;28.10;45.60;;;;;;5054664;28;19924;-58
2023/06/24 12:48:34;;;;;;;;;;;28.10;45.60;;;;;;5053241;28;20385;-58
2023/06/24 12:51:02;;;;;;;;;;;28.10;45.70;;;;;;5080906;28;21256;-58
2023/06/24 12:53:29;;;;;;;;;;;28.10;45.70;;;;;;5085389;28;19960;-58
2023/06/24 12:55:56;;;;;;;;;;;28.00;45.70;;;;;;5054199;28;20019;-58
2023/06/24 12:58:25;;;;;;;;;;;28.00;45.70;;;;;;5084881;28;19944;-59
2023/06/24 13:00:52;;;;;;;;;;;28.00;45.70;;;;;;5046160;28;19925;-59
2023/06/24 13:03:19;;;;;;;;;;;28.00;45.80;;;;;;5050396;28;20015;-59
2023/06/24 13:05:46;;;;;;;;;;;27.90;45.90;;;;;;5053889;28;20023;-59
2023/06/24 13:08:13;;;;;;;;;;;27.90;45.90;;;;;;5067637;28;19966;-59
2023/06/24 13:10:40;;;;;;;;;;;28.00;46.00;;;;;;5074016;28;19950;-58
2023/06/24 13:13:07;;;;;;;;;;;28.00;46.00;;;;;;5055609;28;20031;-58
2023/06/24 13:15:34;;;;;;;;;;;27.90;45.90;;;;;;5053898;28;19960;-58
2023/06/24 13:18:01;;;;;;;;;;;27.90;45.90;;;;;;5052631;28;20417;-58
2023/06/24 13:20:28;;;;;;;;;;;28.00;46.00;;;;;;5053726;28;19921;-59
2023/06/24 13:22:55;;;;;;;;;;;27.90;46.00;;;;;;5053291;28;19927;-59
2023/06/24 13:25:22;;;;;;;;;;;27.90;46.00;;;;;;5053634;28;19970;-59
2023/06/24 13:27:49;;;;;;;;;;;27.90;46.00;;;;;;5052747;28;20027;-58
2023/06/24 13:30:16;;;;;;;;;;;27.90;46.10;;;;;;5054044;28;20424;-59
2023/06/24 13:32:43;;;;;;;;;;;27.90;46.10;;;;;;5052892;28;19921;-59
2023/06/24 13:35:10;;;;;;;;;;;27.90;46.10;;;;;;5053649;28;19927;-58
2023/06/24 13:37:38;;;;;;;;;;;27.80;46.00;;;;;;5053559;28;19921;-58
2023/06/24 13:40:08;;;;;;;;;;;27.80;45.90;;;;;;5053482;28;19921;-59
2023/06/24 13:42:36;;;;;;;;;;;27.90;46.00;;;;;;5053482;28;19966;-58
2023/06/24 13:45:03;;;;;;;;;;;27.90;45.90;;;;;;5054046;28;20343;-59
2023/06/24 13:47:30;;;;;;;;;;;27.90;45.80;;;;;;5053550;28;19964;-59
2023/06/24 13:49:58;;;;;;;;;;;28.00;45.80;;;;;;5053445;28;19920;-59
2023/06/24 13:52:26;;;;;;;;;;;28.00;45.70;;;;;;5053273;28;19967;-59
2023/06/24 13:54:53;;;;;;;;;;;28.00;45.70;;;;;;5053876;28;20024;-59
2023/06/24 13:57:20;;;;;;;;;;;28.00;45.70;;;;;;5053813;28;20043;-59
2023/06/24 13:59:47;;;;;;;;;;;28.00;45.70;;;;;;5053422;28;20007;-59
2023/06/24 14:02:14;;;;;;;;;;;27.90;45.90;;;;;;5052862;28;19921;-59
2023/06/24 14:04:41;;;;;;;;;;;27.90;45.90;;;;;;5053377;28;19928;-59
2023/06/24 14:07:08;;;;;;;;;;;27.90;45.80;;;;;;5053561;28;19921;-59
2023/06/24 14:09:38;;;;;;;;;;;27.90;45.80;;;;;;5051990;28;19955;-58
2023/06/24 14:12:06;;;;;;;;;;;27.90;46.00;;;;;;5053251;28;20003;-59
2023/06/24 14:14:34;;;;;;;;;;;27.90;46.40;;;;;;5053078;28;19928;-59
2023/06/24 14:17:01;;;;;;;;;;;27.90;46.80;;;;;;5053018;28;19960;-59
2023/06/24 14:19:29;;;;;;;;;;;27.90;47.10;;;;;;5051933;28;20285;-59
2023/06/24 14:21:57;;;;;;;;;;;27.90;47.30;;;;;;5051992;28;19970;-59